Time;durP1;ratioP1;P1;durP2;ratioP2;P2;SDS_P1;SDS_P2;PMS_P1;PMS_P2;Temp;Humidity;BMP_temperature;BMP_pressure;BME280_temperature;BME280_humidity;BME280_pressure;Samples;Min_cycle;Max_cycle;Signal;HPM_P1;HPM_P2
2022/03/24 00:01:28;;;;;;;65.03;22.55;;;;;;;;;;5055082;28;20029;-79
2022/03/24 00:03:53;;;;;;;69.40;22.50;;;;;;;;;;5037263;28;20039;-78
2022/03/24 00:06:19;;;;;;;77.55;23.30;;;;;;;;;;5050613;28;20433;-79
2022/03/24 00:08:45;;;;;;;65.95;22.58;;;;;;;;;;5060574;28;20024;-79
2022/03/24 00:11:10;;;;;;;85.95;24.88;;;;;;;;;;5038727;28;20031;-79
2022/03/24 00:13:36;;;;;;;74.60;24.90;;;;;;;;;;5037172;28;20461;-78
2022/03/24 00:16:03;;;;;;;65.55;23.65;;;;;;;;;;5053628;28;20442;-79
2022/03/24 00:18:31;;;;;;;72.75;24.23;;;;;;;;;;5036773;28;20040;-78
2022/03/24 00:20:57;;;;;;;75.20;24.90;;;;;;;;;;5054036;28;20044;-78
2022/03/24 00:23:22;;;;;;;66.38;23.48;;;;;;;;;;5054880;28;20082;-79
2022/03/24 00:25:49;;;;;;;69.90;24.05;;;;;;;;;;5037081;28;20439;-79
2022/03/24 00:28:14;;;;;;;77.82;23.25;;;;;;;;;;5057623;28;20048;-79
2022/03/24 00:30:40;;;;;;;64.07;23.90;;;;;;;;;;5057686;28;20025;-79
2022/03/24 00:33:05;;;;;;;66.40;21.92;;;;;;;;;;5036703;28;20339;-79
2022/03/24 00:35:32;;;;;;;70.22;22.83;;;;;;;;;;5054344;28;20035;-79
2022/03/24 00:37:58;;;;;;;82.40;24.73;;;;;;;;;;5054469;28;20029;-78
2022/03/24 00:40:23;;;;;;;75.78;25.02;;;;;;;;;;5053168;28;20020;-79
2022/03/24 00:42:48;;;;;;;80.07;26.50;;;;;;;;;;5053117;28;20060;-79
2022/03/24 00:45:14;;;;;;;75.72;26.38;;;;;;;;;;5054307;28;20159;-78
2022/03/24 00:47:40;;;;;;;67.78;24.98;;;;;;;;;;5053982;28;20021;-78
2022/03/24 00:50:07;;;;;;;72.13;26.13;;;;;;;;;;5060934;28;20052;-78
2022/03/24 00:52:34;;;;;;;79.88;26.83;;;;;;;;;;5056189;28;20020;-79
2022/03/24 00:55:00;;;;;;;87.55;26.83;;;;;;;;;;5054168;28;20024;-78
2022/03/24 00:57:25;;;;;;;84.97;26.63;;;;;;;;;;5054688;28;20116;-79
2022/03/24 00:59:54;;;;;;;93.80;28.33;;;;;;;;;;5052959;28;20048;-79
2022/03/24 01:02:20;;;;;;;88.20;28.55;;;;;;;;;;5053807;28;20107;-78
2022/03/24 01:04:46;;;;;;;85.40;29.88;;;;;;;;;;5051812;28;20064;-79
2022/03/24 01:07:11;;;;;;;97.20;30.00;;;;;;;;;;5052773;28;20040;-79
2022/03/24 01:09:37;;;;;;;92.25;30.05;;;;;;;;;;5037486;28;20060;-79
2022/03/24 01:12:05;;;;;;;79.00;29.38;;;;;;;;;;5063389;28;20087;-79
2022/03/24 01:14:35;;;;;;;91.00;28.08;;;;;;;;;;5036483;28;20032;-78
2022/03/24 01:17:02;;;;;;;85.20;28.40;;;;;;;;;;5052495;28;20025;-79
2022/03/24 01:19:28;;;;;;;83.55;28.15;;;;;;;;;;5054451;28;20405;-79
2022/03/24 01:21:53;;;;;;;89.35;29.42;;;;;;;;;;5057085;28;20025;-79
2022/03/24 01:24:19;;;;;;;77.55;27.60;;;;;;;;;;5056797;28;20025;-79
2022/03/24 01:26:45;;;;;;;80.50;28.65;;;;;;;;;;5056716;28;20036;-79
2022/03/24 01:29:13;;;;;;;75.38;26.45;;;;;;;;;;5056836;28;20037;-78
2022/03/24 01:31:42;;;;;;;69.43;26.35;;;;;;;;;;5064001;28;20477;-79
2022/03/24 01:34:09;;;;;;;76.53;25.67;;;;;;;;;;5057866;28;20461;-79
2022/03/24 01:36:35;;;;;;;91.85;26.88;;;;;;;;;;5056684;28;20059;-78
2022/03/24 01:39:00;;;;;;;68.82;24.13;;;;;;;;;;5057692;28;20100;-79
2022/03/24 01:41:26;;;;;;;71.45;24.38;;;;;;;;;;5056443;28;20027;-78
2022/03/24 01:43:51;;;;;;;79.18;26.15;;;;;;;;;;5057559;28;20052;-79
2022/03/24 01:46:21;;;;;;;63.30;23.40;;;;;;;;;;5056141;28;20070;-78
2022/03/24 01:48:47;;;;;;;59.53;20.53;;;;;;;;;;5056319;28;20033;-79
2022/03/24 01:51:13;;;;;;;64.43;17.55;;;;;;;;;;5056364;28;20279;-80
2022/03/24 01:53:39;;;;;;;47.30;17.65;;;;;;;;;;5066466;28;20039;-79
2022/03/24 01:56:04;;;;;;;52.75;18.83;;;;;;;;;;5039699;28;20028;-78
2022/03/24 01:58:31;;;;;;;49.40;18.90;;;;;;;;;;5039540;28;20033;-79
2022/03/24 02:01:27;;;;;;;55.47;19.23;;;;;;;;;;5039307;28;20082;-80
2022/03/24 02:03:54;;;;;;;50.65;16.88;;;;;;;;;;5056132;28;20120;-79
2022/03/24 02:06:19;;;;;;;42.83;15.77;;;;;;;;;;5026330;28;20106;-77
2022/03/24 02:08:45;;;;;;;48.72;15.88;;;;;;;;;;5056058;28;20029;-80
2022/03/24 02:11:10;;;;;;;47.47;14.95;;;;;;;;;;5039406;28;20025;-80
2022/03/24 02:13:37;;;;;;;45.85;15.00;;;;;;;;;;5028262;28;20450;-80
2022/03/24 02:16:10;;;;;;;34.83;13.00;;;;;;;;;;5039762;28;20437;-80
2022/03/24 02:18:35;;;;;;;41.03;12.38;;;;;;;;;;5056888;28;20033;-80
2022/03/24 02:21:01;;;;;;;42.13;13.35;;;;;;;;;;5022688;28;20228;-79
2022/03/24 02:23:26;;;;;;;42.63;13.07;;;;;;;;;;5057063;28;20036;-80
2022/03/24 02:25:52;;;;;;;41.80;12.68;;;;;;;;;;5039013;28;20125;-79
2022/03/24 02:28:18;;;;;;;53.20;13.60;;;;;;;;;;5006423;28;20039;-80
2022/03/24 02:30:47;;;;;;;39.47;13.70;;;;;;;;;;5056545;28;20025;-78
2022/03/24 02:33:13;;;;;;;43.75;13.50;;;;;;;;;;5039581;28;20132;-80
2022/03/24 02:35:38;;;;;;;36.67;13.18;;;;;;;;;;5046008;28;20455;-78
2022/03/24 02:38:04;;;;;;;43.80;14.02;;;;;;;;;;5022553;28;20127;-77
2022/03/24 02:40:29;;;;;;;54.60;15.00;;;;;;;;;;5056786;28;20041;-78
2022/03/24 02:42:58;;;;;;;39.38;13.80;;;;;;;;;;5038415;28;20032;-77
2022/03/24 02:45:23;;;;;;;39.53;14.40;;;;;;;;;;5038868;28;20035;-77
2022/03/24 02:47:49;;;;;;;42.92;15.02;;;;;;;;;;5056395;28;20107;-77
2022/03/24 02:50:15;;;;;;;38.78;16.13;;;;;;;;;;5056188;28;20090;-77
2022/03/24 02:52:40;;;;;;;39.00;14.75;;;;;;;;;;5038718;28;20037;-78
2022/03/24 02:55:07;;;;;;;40.25;13.90;;;;;;;;;;5046609;28;20032;-79
2022/03/24 02:57:33;;;;;;;38.38;13.77;;;;;;;;;;5040763;28;20056;-78
2022/03/24 02:59:59;;;;;;;37.47;14.82;;;;;;;;;;5056185;28;20474;-78
2022/03/24 03:02:24;;;;;;;41.40;16.58;;;;;;;;;;5038467;28;20025;-78
2022/03/24 03:04:51;;;;;;;41.33;14.73;;;;;;;;;;5024176;28;20208;-78
2022/03/24 03:07:16;;;;;;;42.47;14.70;;;;;;;;;;5056016;28;20107;-78
2022/03/24 03:09:42;;;;;;;39.55;15.02;;;;;;;;;;5054870;28;20087;-78
2022/03/24 03:12:09;;;;;;;39.90;13.38;;;;;;;;;;5038169;28;20029;-78
2022/03/24 03:14:35;;;;;;;42.10;14.13;;;;;;;;;;5022047;28;20032;-78
2022/03/24 03:17:01;;;;;;;34.97;13.90;;;;;;;;;;5044466;28;20033;-77
2022/03/24 03:19:26;;;;;;;39.58;13.73;;;;;;;;;;5056418;28;20040;-78
2022/03/24 03:21:52;;;;;;;38.53;14.15;;;;;;;;;;5054595;28;20025;-77
2022/03/24 03:24:18;;;;;;;40.40;14.23;;;;;;;;;;5037962;28;20028;-79
2022/03/24 03:26:44;;;;;;;47.28;16.48;;;;;;;;;;5005219;28;20025;-77
2022/03/24 03:29:11;;;;;;;53.55;15.63;;;;;;;;;;5037674;28;20044;-78
2022/03/24 03:31:36;;;;;;;44.00;16.33;;;;;;;;;;5037947;28;20056;-78
2022/03/24 03:34:03;;;;;;;45.78;15.90;;;;;;;;;;5055530;28;20075;-78
2022/03/24 03:36:29;;;;;;;44.47;15.07;;;;;;;;;;5026809;28;20029;-78
2022/03/24 03:38:54;;;;;;;50.78;15.30;;;;;;;;;;5041873;28;20451;-77
2022/03/24 03:41:22;;;;;;;52.08;16.25;;;;;;;;;;5037376;28;20386;-79
2022/03/24 03:43:48;;;;;;;41.97;15.27;;;;;;;;;;5037868;28;20117;-77
2022/03/24 03:46:15;;;;;;;42.92;15.90;;;;;;;;;;5020935;28;20055;-78
2022/03/24 03:48:40;;;;;;;43.38;16.73;;;;;;;;;;5037394;28;20044;-77
2022/03/24 03:51:06;;;;;;;56.45;15.80;;;;;;;;;;5037561;28;20025;-77
2022/03/24 03:53:33;;;;;;;46.17;17.35;;;;;;;;;;5055126;28;20021;-78
2022/03/24 03:55:59;;;;;;;44.22;15.65;;;;;;;;;;5037164;28;20365;-78
2022/03/24 03:58:25;;;;;;;49.92;17.80;;;;;;;;;;5043819;28;20067;-77
2022/03/24 04:00:53;;;;;;;47.97;18.15;;;;;;;;;;5055131;28;20366;-77
2022/03/24 04:03:29;;;;;;;49.92;18.63;;;;;;;;;;5021635;28;20128;-78
2022/03/24 04:05:56;;;;;;;50.55;20.15;;;;;;;;;;5043580;28;20064;-77
2022/03/24 04:08:24;;;;;;;41.63;18.00;;;;;;;;;;5020807;28;20033;-77
2022/03/24 04:10:49;;;;;;;47.88;19.00;;;;;;;;;;5053589;28;20033;-77
2022/03/24 04:13:18;;;;;;;45.92;20.27;;;;;;;;;;5020480;28;20343;-78
2022/03/24 04:15:45;;;;;;;55.42;20.08;;;;;;;;;;5020661;28;20033;-78
2022/03/24 04:18:11;;;;;;;54.85;20.80;;;;;;;;;;5042342;28;20041;-80
2022/03/24 04:20:36;;;;;;;41.42;16.33;;;;;;;;;;5060421;28;20091;-78
2022/03/24 04:23:02;;;;;;;42.97;16.60;;;;;;;;;;5037045;28;20067;-78
2022/03/24 04:25:28;;;;;;;43.10;17.15;;;;;;;;;;5037064;28;20351;-77
2022/03/24 04:27:54;;;;;;;53.42;22.60;;;;;;;;;;5053104;28;20048;-78
2022/03/24 04:30:19;;;;;;;62.22;23.92;;;;;;;;;;5054455;28;20037;-78
2022/03/24 04:32:45;;;;;;;76.35;31.63;;;;;;;;;;5036710;28;20029;-81
2022/03/24 04:35:11;;;;;;;106.68;40.30;;;;;;;;;;5054192;28;20036;-78
2022/03/24 04:37:37;;;;;;;79.63;30.88;;;;;;;;;;5053333;28;20025;-79
2022/03/24 04:40:03;;;;;;;65.93;27.33;;;;;;;;;;5046233;28;20501;-78
2022/03/24 04:42:29;;;;;;;83.22;33.42;;;;;;;;;;5055944;28;20359;-78
2022/03/24 04:44:55;;;;;;;57.45;22.15;;;;;;;;;;5054258;28;20028;-79
2022/03/24 04:47:21;;;;;;;50.22;20.73;;;;;;;;;;5054139;28;20025;-78
2022/03/24 04:49:46;;;;;;;51.67;20.65;;;;;;;;;;5054033;28;20029;-79
2022/03/24 04:52:12;;;;;;;55.40;20.45;;;;;;;;;;5054099;28;20032;-79
2022/03/24 04:54:38;;;;;;;53.58;21.63;;;;;;;;;;5035746;28;20035;-79
2022/03/24 04:57:03;;;;;;;62.72;20.73;;;;;;;;;;5054061;28;20052;-78
2022/03/24 04:59:29;;;;;;;51.13;19.83;;;;;;;;;;5056183;28;20021;-78
2022/03/24 05:01:56;;;;;;;59.13;22.25;;;;;;;;;;5062975;28;20068;-78
2022/03/24 05:04:23;;;;;;;47.28;20.10;;;;;;;;;;5036379;28;20025;-78
2022/03/24 05:06:49;;;;;;;47.28;18.80;;;;;;;;;;5053907;28;20047;-78
2022/03/24 05:09:15;;;;;;;62.10;20.55;;;;;;;;;;5020000;28;20376;-78
2022/03/24 05:11:40;;;;;;;54.08;20.88;;;;;;;;;;5054288;28;20029;-77
2022/03/24 05:14:06;;;;;;;49.92;19.65;;;;;;;;;;5053848;28;20488;-78
2022/03/24 05:16:31;;;;;;;59.33;20.95;;;;;;;;;;5053926;28;20035;-78
2022/03/24 05:18:57;;;;;;;50.55;20.58;;;;;;;;;;5054106;28;20032;-77
2022/03/24 05:21:23;;;;;;;52.75;22.20;;;;;;;;;;5062846;28;20051;-78
2022/03/24 05:23:48;;;;;;;51.08;21.48;;;;;;;;;;5053743;28;20131;-78
2022/03/24 05:26:14;;;;;;;54.15;22.30;;;;;;;;;;5053642;28;20028;-82
2022/03/24 05:28:39;;;;;;;56.60;21.52;;;;;;;;;;5019461;28;20028;-81
2022/03/24 05:31:05;;;;;;;63.72;21.75;;;;;;;;;;5018348;28;20080;-80
2022/03/24 05:33:31;;;;;;;57.63;20.30;;;;;;;;;;5019653;28;20018;-76
2022/03/24 05:35:56;;;;;;;61.03;21.30;;;;;;;;;;5053232;28;20025;-76
2022/03/24 05:38:22;;;;;;;58.55;20.88;;;;;;;;;;5052975;28;20029;-76
2022/03/24 05:40:47;;;;;;;64.15;21.10;;;;;;;;;;5053028;28;20029;-76
2022/03/24 05:43:12;;;;;;;56.80;21.73;;;;;;;;;;5059466;28;20025;-76
2022/03/24 05:45:38;;;;;;;65.00;21.40;;;;;;;;;;5056710;28;20101;-76
2022/03/24 05:48:04;;;;;;;67.43;23.48;;;;;;;;;;5061074;28;20025;-76
2022/03/24 05:50:31;;;;;;;51.72;21.02;;;;;;;;;;5045024;28;20440;-76
2022/03/24 05:52:57;;;;;;;67.65;21.83;;;;;;;;;;5019576;28;20037;-76
2022/03/24 05:55:29;;;;;;;62.88;22.23;;;;;;;;;;5066830;28;20136;-76
2022/03/24 05:57:54;;;;;;;84.05;27.85;;;;;;;;;;5032492;28;20029;-78
2022/03/24 06:00:21;;;;;;;89.38;28.38;;;;;;;;;;5055212;28;20025;-76
2022/03/24 06:02:47;;;;;;;77.63;25.45;;;;;;;;;;5046721;28;20025;-79
2022/03/24 06:05:13;;;;;;;78.68;27.23;;;;;;;;;;5058498;28;20701;-79
2022/03/24 06:07:41;;;;;;;91.97;31.75;;;;;;;;;;5062720;28;20586;-78
2022/03/24 06:10:08;;;;;;;91.05;33.45;;;;;;;;;;5053839;28;20515;-78
2022/03/24 06:12:34;;;;;;;82.82;30.63;;;;;;;;;;5070401;28;20118;-77
2022/03/24 06:15:00;;;;;;;121.30;36.92;;;;;;;;;;5055636;28;20032;-75
2022/03/24 06:17:26;;;;;;;120.05;33.28;;;;;;;;;;5090709;28;20105;-77
2022/03/24 06:19:53;;;;;;;105.57;34.67;;;;;;;;;;5088499;28;20032;-77
2022/03/24 06:22:22;;;;;;;113.40;29.73;;;;;;;;;;5087628;28;20037;-80
2022/03/24 06:24:49;;;;;;;147.70;40.72;;;;;;;;;;5075596;28;20036;-77
2022/03/24 06:27:17;;;;;;;140.15;33.88;;;;;;;;;;5072623;28;20423;-78
2022/03/24 06:29:43;;;;;;;105.72;29.13;;;;;;;;;;5092469;28;20040;-80
2022/03/24 06:32:08;;;;;;;75.32;29.70;;;;;;;;;;5093221;28;20394;-79
2022/03/24 06:34:34;;;;;;;87.90;29.55;;;;;;;;;;5073397;28;20501;-78
2022/03/24 06:37:00;;;;;;;103.20;29.30;;;;;;;;;;5075615;28;20027;-81
2022/03/24 06:39:26;;;;;;;86.28;28.33;;;;;;;;;;5045193;28;20036;-84
2022/03/24 06:41:51;;;;;;;80.13;34.13;;;;;;;;;;5095157;28;20061;-82
2022/03/24 06:44:17;;;;;;;79.45;27.02;;;;;;;;;;5077944;28;20058;-82
2022/03/24 06:46:42;;;;;;;67.32;24.90;;;;;;;;;;5090997;28;20462;-81
2022/03/24 06:49:08;;;;;;;54.88;24.00;;;;;;;;;;5080391;28;20048;-80
2022/03/24 06:51:34;;;;;;;49.50;22.70;;;;;;;;;;5094764;28;20038;-80
2022/03/24 06:54:03;;;;;;;50.40;21.42;;;;;;;;;;5070696;28;20527;-83
2022/03/24 06:56:28;;;;;;;47.42;20.90;;;;;;;;;;5068406;28;20052;-79
2022/03/24 06:58:54;;;;;;;47.60;21.10;;;;;;;;;;5056472;28;20054;-78
2022/03/24 07:01:22;;;;;;;48.50;21.17;;;;;;;;;;5085771;28;20111;-80
2022/03/24 07:03:48;;;;;;;50.92;22.70;;;;;;;;;;5081999;28;20123;-79
2022/03/24 07:06:13;;;;;;;51.38;21.60;;;;;;;;;;5068772;28;20112;-79
2022/03/24 07:08:40;;;;;;;44.33;21.10;;;;;;;;;;5061419;28;20028;-77
2022/03/24 07:11:06;;;;;;;47.00;20.40;;;;;;;;;;5069868;28;20621;-78
2022/03/24 07:13:32;;;;;;;46.83;21.55;;;;;;;;;;5065907;28;20454;-76
2022/03/24 07:15:57;;;;;;;53.05;22.90;;;;;;;;;;5038885;28;20060;-76
2022/03/24 07:18:38;;;;;;;70.18;28.10;;;;;;;;;;5071819;28;20035;-77
2022/03/24 07:21:03;;;;;;;80.20;27.10;;;;;;;;;;5066487;28;20036;-75
2022/03/24 07:23:29;;;;;;;66.40;27.52;;;;;;;;;;5062432;28;20052;-75
2022/03/24 07:26:00;;;;;;;50.42;23.75;;;;;;;;;;5067018;28;20067;-75
2022/03/24 07:28:26;;;;;;;55.92;22.67;;;;;;;;;;5057394;28;20032;-75
2022/03/24 07:30:52;;;;;;;72.32;25.30;;;;;;;;;;5069510;28;20029;-75
2022/03/24 07:33:18;;;;;;;54.50;25.98;;;;;;;;;;5067546;28;20037;-78
2022/03/24 07:35:44;;;;;;;48.13;22.70;;;;;;;;;;5061167;28;20426;-77
2022/03/24 07:38:09;;;;;;;53.58;25.63;;;;;;;;;;5063047;28;20036;-78
2022/03/24 07:40:44;;;;;;;55.63;24.65;;;;;;;;;;5038125;28;20135;-81
2022/03/24 07:43:10;;;;;;;56.08;26.95;;;;;;;;;;5027280;28;20056;-75
2022/03/24 07:45:38;;;;;;;51.85;26.23;;;;;;;;;;5050341;28;20351;-75
2022/03/24 07:48:25;;;;;;;41.95;21.50;;;;;;;;;;5038830;28;20037;-78
2022/03/24 07:50:56;;;;;;;48.55;20.70;;;;;;;;;;5040872;28;20052;-79
2022/03/24 07:53:28;;;;;;;71.45;32.35;;;;;;;;;;5037883;28;20562;-76
2022/03/24 07:56:01;;;;;;;65.32;23.77;;;;;;;;;;5068452;28;20025;-81
2022/03/24 07:58:27;;;;;;;56.28;28.67;;;;;;;;;;5048362;28;20430;-81
2022/03/24 08:00:53;;;;;;;49.45;18.30;;;;;;;;;;5046891;28;20035;-80
2022/03/24 08:03:32;;;;;;;64.40;23.48;;;;;;;;;;5062652;28;20043;-84
2022/03/24 08:05:58;;;;;;;49.33;19.63;;;;;;;;;;5071555;28;20043;-80
2022/03/24 08:08:24;;;;;;;42.30;15.95;;;;;;;;;;5030291;28;20034;-78
2022/03/24 08:10:50;;;;;;;46.78;16.67;;;;;;;;;;5054020;28;20476;-80
2022/03/24 08:13:17;;;;;;;34.00;15.23;;;;;;;;;;5042247;28;20094;-83
2022/03/24 08:15:43;;;;;;;38.67;18.25;;;;;;;;;;5015181;28;20520;-82
2022/03/24 08:18:09;;;;;;;59.88;24.23;;;;;;;;;;5059327;28;20035;-77
2022/03/24 08:20:35;;;;;;;48.50;22.42;;;;;;;;;;5057041;28;20041;-80
2022/03/24 08:23:06;;;;;;;36.35;16.55;;;;;;;;;;5051491;28;20045;-83
2022/03/24 08:28:07;;;;;;;42.85;18.00;;;;;;;;;;5043892;22;20122;-83
2022/03/24 08:30:33;;;;;;;38.03;16.85;;;;;;;;;;4997778;28;20106;-82
2022/03/24 08:32:59;;;;;;;54.75;19.60;;;;;;;;;;4998701;28;20065;-83
2022/03/24 08:35:24;;;;;;;40.38;17.45;;;;;;;;;;5030800;28;20021;-82
2022/03/24 08:37:51;;;;;;;40.08;17.73;;;;;;;;;;5027198;28;20117;-84
2022/03/24 08:40:16;;;;;;;42.28;17.30;;;;;;;;;;5032122;28;20025;-85
2022/03/24 08:42:46;;;;;;;36.03;16.85;;;;;;;;;;5040360;28;20069;-83
2022/03/24 08:45:39;;;;;;;37.92;17.05;;;;;;;;;;5039645;28;20141;-84
2022/03/24 08:48:11;;;;;;;37.95;15.73;;;;;;;;;;5015230;28;20132;-86
2022/03/24 08:50:37;;;;;;;32.25;16.02;;;;;;;;;;5012087;28;20033;-83
2022/03/24 08:53:04;;;;;;;54.95;16.50;;;;;;;;;;5012976;28;20103;-83
2022/03/24 08:55:30;;;;;;;42.25;18.83;;;;;;;;;;5002810;28;20170;-84
2022/03/24 08:57:55;;;;;;;39.08;17.73;;;;;;;;;;5015854;28;20048;-84
2022/03/24 09:00:44;;;;;;;65.45;25.15;;;;;;;;;;5024673;28;20054;-87
2022/03/24 09:03:09;;;;;;;120.32;26.73;;;;;;;;;;5023211;28;20459;-83
2022/03/24 09:05:36;;;;;;;69.05;26.23;;;;;;;;;;5034379;28;20103;-79
2022/03/24 09:08:05;;;;;;;44.65;19.45;;;;;;;;;;5031045;28;20117;-82
2022/03/24 09:10:56;;;;;;;58.83;22.23;;;;;;;;;;5033026;28;20550;-84
2022/03/24 09:13:22;;;;;;;43.42;19.77;;;;;;;;;;5010148;28;20045;-78
2022/03/24 09:15:48;;;;;;;42.20;17.33;;;;;;;;;;5028374;28;20557;-80
2022/03/24 09:18:14;;;;;;;38.53;17.13;;;;;;;;;;5029017;28;20062;-80
2022/03/24 09:20:42;;;;;;;53.58;16.35;;;;;;;;;;5030937;28;20037;-83
2022/03/24 09:23:14;;;;;;;55.55;25.30;;;;;;;;;;5018740;28;20072;-86
2022/03/24 09:25:40;;;;;;;46.15;18.67;;;;;;;;;;4998712;28;20056;-84
2022/03/24 09:28:06;;;;;;;31.67;14.57;;;;;;;;;;5029777;28;20073;-81
2022/03/24 09:30:32;;;;;;;42.20;20.10;;;;;;;;;;5032125;28;20076;-84
2022/03/24 09:32:58;;;;;;;47.13;20.98;;;;;;;;;;5017135;28;20618;-82
2022/03/24 09:35:24;;;;;;;47.67;24.10;;;;;;;;;;5034823;28;20359;-83
2022/03/24 09:37:49;;;;;;;42.00;15.68;;;;;;;;;;5016559;28;20112;-82
2022/03/24 09:40:15;;;;;;;34.25;15.10;;;;;;;;;;5032240;28;20064;-82
2022/03/24 09:42:42;;;;;;;37.25;16.65;;;;;;;;;;5043686;28;20098;-84
2022/03/24 09:45:10;;;;;;;48.90;18.55;;;;;;;;;;5039130;28;20124;-79
2022/03/24 09:47:37;;;;;;;45.40;18.58;;;;;;;;;;5035601;28;20107;-79
2022/03/24 09:50:04;;;;;;;45.05;18.38;;;;;;;;;;5035799;28;20099;-82
2022/03/24 09:52:29;;;;;;;40.20;16.95;;;;;;;;;;5000109;28;20044;-81
2022/03/24 09:54:55;;;;;;;37.55;16.95;;;;;;;;;;5026578;28;20443;-81
2022/03/24 09:57:21;;;;;;;45.30;14.23;;;;;;;;;;5030022;28;20482;-82
2022/03/24 09:59:46;;;;;;;31.58;14.88;;;;;;;;;;5001404;28;20383;-82
2022/03/24 10:02:12;;;;;;;51.65;16.30;;;;;;;;;;4986799;28;20037;-83
2022/03/24 10:04:49;;;;;;;39.10;15.15;;;;;;;;;;4971694;28;20029;-82
2022/03/24 10:07:16;;;;;;;37.72;12.90;;;;;;;;;;4982650;28;20042;-78
2022/03/24 10:09:43;;;;;;;34.33;13.93;;;;;;;;;;4995471;28;20041;-80
2022/03/24 10:12:26;;;;;;;47.10;14.70;;;;;;;;;;5037416;28;20029;-81
2022/03/24 10:15:00;;;;;;;36.03;13.52;;;;;;;;;;5036205;28;20076;-80
2022/03/24 10:17:45;;;;;;;35.85;13.27;;;;;;;;;;5041315;28;20028;-79
2022/03/24 10:20:18;;;;;;;33.33;14.40;;;;;;;;;;5040888;28;20029;-78
2022/03/24 10:23:04;;;;;;;31.25;13.07;;;;;;;;;;5048402;28;20052;-78
2022/03/24 10:25:31;;;;;;;29.52;13.10;;;;;;;;;;5021838;28;20041;-81
2022/03/24 10:28:18;;;;;;;49.67;13.60;;;;;;;;;;5041198;28;20045;-80
2022/03/24 10:30:59;;;;;;;40.88;12.48;;;;;;;;;;5061167;28;20024;-79
2022/03/24 10:33:37;;;;;;;37.50;13.05;;;;;;;;;;5027774;28;20037;-78
2022/03/24 10:36:23;;;;;;;33.95;12.85;;;;;;;;;;5040436;28;20044;-80
2022/03/24 10:38:52;;;;;;;30.27;12.00;;;;;;;;;;5018582;28;20106;-81
2022/03/24 10:41:19;;;;;;;29.45;12.10;;;;;;;;;;5034495;28;20036;-80
2022/03/24 10:43:45;;;;;;;47.45;12.25;;;;;;;;;;5054043;28;20032;-79
2022/03/24 10:46:25;;;;;;;32.72;12.32;;;;;;;;;;5016323;28;20060;-81
2022/03/24 10:48:51;;;;;;;41.83;13.75;;;;;;;;;;5028038;28;20120;-78
2022/03/24 10:51:27;;;;;;;45.42;12.30;;;;;;;;;;5032769;28;20124;-81
2022/03/24 10:54:28;;;;;;;65.53;19.67;;;;;;;;;;5014276;28;20378;-80
2022/03/24 10:56:57;;;;;;;63.40;21.83;;;;;;;;;;5032451;28;20149;-78
2022/03/24 10:59:23;;;;;;;53.88;15.18;;;;;;;;;;5033086;28;20492;-80
2022/03/24 11:01:49;;;;;;;48.58;20.02;;;;;;;;;;5000574;28;20120;-85
2022/03/24 11:04:15;;;;;;;59.17;21.40;;;;;;;;;;5004219;28;20489;-82
2022/03/24 11:06:50;;;;;;;56.15;18.23;;;;;;;;;;5003859;28;20025;-84
2022/03/24 11:09:33;;;;;;;36.90;14.65;;;;;;;;;;5021309;28;20675;-85
2022/03/24 11:12:26;;;;;;;33.25;11.70;;;;;;;;;;5008127;28;20033;-85
2022/03/24 11:14:54;;;;;;;52.20;20.92;;;;;;;;;;5039118;28;20049;-87
2022/03/24 11:17:24;;;;;;;57.70;26.48;;;;;;;;;;5037784;28;20017;-83
2022/03/24 11:19:55;;;;;;;46.63;21.13;;;;;;;;;;5023501;28;20438;-85
2022/03/24 11:22:21;;;;;;;52.80;20.13;;;;;;;;;;5007088;28;20079;-84
2022/03/24 11:24:51;;;;;;;52.15;18.67;;;;;;;;;;5006912;28;20022;-85
2022/03/24 11:27:19;;;;;;;88.82;16.92;;;;;;;;;;5007434;28;20143;-84
2022/03/24 11:29:45;;;;;;;35.85;14.30;;;;;;;;;;5002233;28;20590;-84
2022/03/24 11:32:10;;;;;;;52.22;15.77;;;;;;;;;;5015321;28;20041;-85
2022/03/24 11:34:36;;;;;;;42.63;16.98;;;;;;;;;;5039141;28;20120;-87
2022/03/24 11:37:03;;;;;;;62.13;26.13;;;;;;;;;;5016937;28;20041;-86
2022/03/24 11:39:33;;;;;;;63.13;28.98;;;;;;;;;;5018050;28;20025;-84
2022/03/24 11:41:59;;;;;;;44.33;21.05;;;;;;;;;;5033998;28;20030;-81
2022/03/24 11:44:48;;;;;;;51.75;18.13;;;;;;;;;;5006077;28;20030;-83
2022/03/24 11:47:15;;;;;;;45.72;17.10;;;;;;;;;;5004842;28;20060;-81
2022/03/24 11:49:41;;;;;;;42.88;16.30;;;;;;;;;;5036951;28;20106;-83
2022/03/24 11:52:06;;;;;;;40.17;16.27;;;;;;;;;;5017916;28;20172;-81
2022/03/24 11:54:33;;;;;;;42.42;17.00;;;;;;;;;;5013572;28;20072;-82
2022/03/24 11:57:23;;;;;;;46.67;17.42;;;;;;;;;;5030516;28;20418;-82
2022/03/24 12:00:09;;;;;;;51.05;21.20;;;;;;;;;;5016097;28;20029;-82
2022/03/24 12:02:37;;;;;;;46.83;20.60;;;;;;;;;;5000021;28;20068;-82
2022/03/24 12:05:05;;;;;;;45.65;14.60;;;;;;;;;;5021839;28;20025;-84
2022/03/24 12:07:30;;;;;;;55.65;17.58;;;;;;;;;;5004980;28;20065;-82
2022/03/24 12:10:09;;;;;;;51.63;15.63;;;;;;;;;;4990390;28;20447;-85
2022/03/24 12:12:38;;;;;;;65.95;29.90;;;;;;;;;;5004028;28;20355;-82
2022/03/24 12:15:31;;;;;;;44.63;19.83;;;;;;;;;;5017506;28;20309;-83
2022/03/24 12:18:15;;;;;;;46.03;19.27;;;;;;;;;;4998706;28;20375;-80
2022/03/24 12:20:44;;;;;;;41.28;17.70;;;;;;;;;;5017609;28;20025;-82
2022/03/24 12:23:10;;;;;;;42.50;18.15;;;;;;;;;;5018874;28;20095;-81
2022/03/24 12:25:36;;;;;;;43.75;15.27;;;;;;;;;;5041589;28;20351;-83
2022/03/24 12:28:04;;;;;;;44.03;19.50;;;;;;;;;;5022060;28;20060;-81
2022/03/24 12:30:48;;;;;;;40.42;15.05;;;;;;;;;;5053908;28;20060;-80
2022/03/24 12:33:15;;;;;;;41.22;15.70;;;;;;;;;;5024062;28;20064;-80
2022/03/24 12:35:47;;;;;;;46.72;21.08;;;;;;;;;;5061794;28;20059;-81
2022/03/24 12:38:31;;;;;;;73.50;20.98;;;;;;;;;;5018579;28;20029;-81
2022/03/24 12:41:17;;;;;;;60.85;24.98;;;;;;;;;;5051520;28;20033;-82
2022/03/24 12:44:07;;;;;;;36.63;13.30;;;;;;;;;;5052204;28;20397;-82
2022/03/24 12:46:44;;;;;;;39.88;15.55;;;;;;;;;;5037111;28;20123;-82
2022/03/24 12:49:14;;;;;;;46.40;18.20;;;;;;;;;;5018980;28;20102;-81
2022/03/24 12:52:01;;;;;;;43.83;19.13;;;;;;;;;;5053900;28;20078;-82
2022/03/24 12:54:44;;;;;;;36.58;13.82;;;;;;;;;;5052767;28;20442;-81
2022/03/24 12:57:29;;;;;;;79.72;16.73;;;;;;;;;;5035765;28;20409;-82
2022/03/24 12:59:54;;;;;;;39.67;14.25;;;;;;;;;;5052109;28;20040;-80
2022/03/24 13:02:20;;;;;;;35.28;14.15;;;;;;;;;;5001744;28;20045;-82
2022/03/24 13:04:50;;;;;;;73.00;33.08;;;;;;;;;;5059247;28;20052;-80
2022/03/24 13:07:24;;;;;;;64.00;27.63;;;;;;;;;;5034446;28;20036;-82
2022/03/24 13:10:05;;;;;;;53.05;22.00;;;;;;;;;;5017546;28;20033;-82
2022/03/24 13:12:31;;;;;;;49.25;20.33;;;;;;;;;;5018079;28;20020;-79
2022/03/24 13:14:56;;;;;;;24.88;11.40;;;;;;;;;;5017719;28;20120;-78
2022/03/24 13:17:22;;;;;;;31.02;10.75;;;;;;;;;;5055796;28;20048;-79
2022/03/24 13:19:49;;;;;;;38.50;10.60;;;;;;;;;;5038900;28;20052;-78
2022/03/24 13:22:19;;;;;;;29.77;10.15;;;;;;;;;;5038818;28;20430;-79
2022/03/24 13:25:07;;;;;;;30.75;10.93;;;;;;;;;;5059693;28;20164;-78
2022/03/24 13:27:39;;;;;;;26.55;11.02;;;;;;;;;;5042033;28;20455;-78
2022/03/24 13:30:06;;;;;;;53.65;12.38;;;;;;;;;;5019180;28;20447;-77
2022/03/24 13:32:31;;;;;;;42.78;13.48;;;;;;;;;;5038026;28;20025;-78
2022/03/24 13:35:00;;;;;;;35.30;12.77;;;;;;;;;;5019948;28;20039;-77
2022/03/24 13:37:30;;;;;;;57.08;14.10;;;;;;;;;;5037587;28;20497;-77
2022/03/24 13:39:56;;;;;;;;;;;;;;;;;;5020620;28;20486;-78
2022/03/24 13:42:23;;;;;;;35.17;11.38;;;;;;;;;;5038013;28;19913;-75
2022/03/24 13:44:49;;;;;;;28.83;11.95;;;;;;;;;;5040020;28;20033;-77
2022/03/24 13:47:25;;;;;;;43.17;12.27;;;;;;;;;;5040777;28;20431;-77
2022/03/24 13:50:09;;;;;;;38.83;11.60;;;;;;;;;;5019555;28;20084;-76
2022/03/24 13:52:39;;;;;;;51.08;11.93;;;;;;;;;;5002775;28;21073;-76
2022/03/24 13:55:11;;;;;;;33.15;13.43;;;;;;;;;;5036417;28;20034;-76
2022/03/24 13:58:09;;;;;;;39.13;12.10;;;;;;;;;;5036526;28;20458;-77
2022/03/24 14:00:45;;;;;;;46.88;14.45;;;;;;;;;;5035852;28;20064;-77
2022/03/24 14:03:10;;;;;;;42.35;17.17;;;;;;;;;;5018643;28;20091;-77
2022/03/24 14:06:00;;;;;;;53.55;16.55;;;;;;;;;;5039461;28;20033;-76
2022/03/24 14:08:35;;;;;;;58.10;18.65;;;;;;;;;;5039503;28;20395;-77
2022/03/24 14:11:00;;;;;;;56.60;18.25;;;;;;;;;;5037077;28;20028;-76
2022/03/24 14:13:52;;;;;;;73.43;16.27;;;;;;;;;;5037199;28;20025;-78
2022/03/24 14:16:25;;;;;;;46.15;14.55;;;;;;;;;;5037104;28;20080;-78
2022/03/24 14:19:03;;;;;;;37.60;15.48;;;;;;;;;;5037023;28;20034;-78
2022/03/24 14:21:46;;;;;;;34.40;15.23;;;;;;;;;;5005031;28;20034;-77
2022/03/24 14:24:37;;;;;;;40.00;16.20;;;;;;;;;;4999534;28;20129;-77
2022/03/24 14:27:06;;;;;;;42.45;16.13;;;;;;;;;;5021505;28;20183;-78
2022/03/24 14:29:32;;;;;;;55.67;17.45;;;;;;;;;;5016630;28;20037;-78